createdAt,value
2019-05-29T00:00:32.394Z,99.90
2019-05-29T00:01:17.759Z,99.90
2019-05-29T00:01:52.424Z,99.90
2019-05-29T00:02:32.903Z,99.90
2019-05-29T00:03:12.500Z,99.90
2019-05-29T00:03:51.594Z,99.90
2019-05-29T00:04:30.067Z,99.90
2019-05-29T00:05:10.182Z,99.90
2019-05-29T00:05:49.518Z,99.90
2019-05-29T00:06:28.508Z,99.90
2019-05-29T00:07:08.296Z,99.90
2019-05-29T00:07:47.822Z,99.90
2019-05-29T00:08:26.577Z,99.90
2019-05-29T00:09:06.047Z,99.90
2019-05-29T00:09:45.799Z,99.90
2019-05-29T00:10:24.487Z,99.90
2019-05-29T00:11:04.015Z,99.90
2019-05-29T00:11:43.851Z,99.90
2019-05-29T00:12:23.021Z,99.90
2019-05-29T00:13:02.304Z,99.90
2019-05-29T00:13:41.419Z,99.90
2019-05-29T00:14:27.168Z,99.90
2019-05-29T00:15:01.612Z,99.90
2019-05-29T00:15:41.008Z,99.90
2019-05-29T00:16:19.444Z,99.90
2019-05-29T00:16:59.137Z,99.90
2019-05-29T00:17:41.587Z,99.90
2019-05-29T00:18:19.979Z,99.90
2019-05-29T00:18:59.489Z,99.90
2019-05-29T00:19:39.243Z,99.90
2019-05-29T00:20:18.654Z,99.90
2019-05-29T00:20:58.237Z,99.90
2019-05-29T00:21:37.824Z,99.90
2019-05-29T00:22:17.308Z,99.90
2019-05-29T00:22:56.827Z,99.90
2019-05-29T00:23:36.391Z,99.90
2019-05-29T00:24:16.094Z,99.90
2019-05-29T00:24:55.555Z,99.90
2019-05-29T00:25:34.827Z,99.90
2019-05-29T00:26:14.521Z,99.90
2019-05-29T00:26:53.892Z,99.90
2019-05-29T00:27:33.311Z,99.90
2019-05-29T00:28:12.738Z,99.90
2019-05-29T00:28:52.975Z,99.90
2019-05-29T00:29:32.775Z,99.90
2019-05-29T00:30:13.385Z,99.90
2019-05-29T00:30:53.360Z,99.90
2019-05-29T00:31:32.615Z,99.90
2019-05-29T00:32:11.950Z,99.90
2019-05-29T00:32:52.198Z,99.90
2019-05-29T00:33:32.301Z,99.90
2019-05-29T00:34:11.104Z,99.90
2019-05-29T00:34:50.663Z,99.90
2019-05-29T00:35:30.071Z,99.90
2019-05-29T00:36:10.258Z,99.90
2019-05-29T00:36:49.982Z,99.90
2019-05-29T00:37:29.351Z,99.90
2019-05-29T00:38:08.553Z,99.90
2019-05-29T00:38:47.919Z,99.90
2019-05-29T00:39:27.496Z,99.90
2019-05-29T00:40:06.738Z,99.90
2019-05-29T00:40:46.534Z,99.90
2019-05-29T00:41:26.180Z,99.90
2019-05-29T00:42:04.882Z,99.90
2019-05-29T00:42:44.260Z,99.90
2019-05-29T00:43:23.711Z,99.90
2019-05-29T00:44:02.827Z,99.90
2019-05-29T00:44:42.465Z,99.90
2019-05-29T00:45:21.685Z,99.90
2019-05-29T00:46:01.191Z,99.90
2019-05-29T00:46:40.711Z,99.90
2019-05-29T00:47:20.095Z,99.90
2019-05-29T00:47:58.948Z,99.90
2019-05-29T00:48:38.485Z,99.90
2019-05-29T00:49:18.089Z,99.90
2019-05-29T00:49:57.163Z,99.90
2019-05-29T00:50:36.986Z,99.90
2019-05-29T00:51:17.131Z,99.90
2019-05-29T00:51:56.220Z,99.90
2019-05-29T00:52:36.024Z,99.90
2019-05-29T00:53:16.292Z,99.90
2019-05-29T00:53:55.544Z,99.90
2019-05-29T00:54:34.849Z,99.90
2019-05-29T00:55:14.714Z,99.90
2019-05-29T00:55:54.200Z,99.90
2019-05-29T00:56:33.310Z,99.90
2019-05-29T00:57:13.225Z,99.90
2019-05-29T00:57:52.289Z,99.90
2019-05-29T00:58:31.791Z,99.90
2019-05-29T00:59:11.702Z,99.90
2019-05-29T00:59:50.759Z,99.90
2019-05-29T01:00:30.324Z,99.90
2019-05-29T01:01:11.332Z,99.90
2019-05-29T01:01:50.003Z,99.90
2019-05-29T01:02:29.617Z,99.90
2019-05-29T01:03:09.568Z,99.90
2019-05-29T01:03:48.546Z,99.90
2019-05-29T01:04:28.134Z,99.90
2019-05-29T01:05:07.822Z,99.90
2019-05-29T01:05:46.684Z,99.90
2019-05-29T01:06:26.124Z,99.90
2019-05-29T01:07:05.730Z,99.90
2019-05-29T01:07:44.578Z,99.90
2019-05-29T01:08:24.457Z,99.90
2019-05-29T01:09:03.940Z,99.90
2019-05-29T01:09:42.909Z,99.90
2019-05-29T01:10:23.116Z,99.90
2019-05-29T01:11:03.410Z,99.90
2019-05-29T01:11:44.199Z,99.90
2019-05-29T01:12:24.000Z,99.90
2019-05-29T01:13:03.555Z,99.90
2019-05-29T01:13:42.675Z,99.90
2019-05-29T01:14:22.279Z,99.90
2019-05-29T01:15:02.119Z,99.90
2019-05-29T01:15:43.739Z,99.90
2019-05-29T01:16:26.544Z,99.90
2019-05-29T01:17:06.096Z,99.90
2019-05-29T01:17:45.116Z,99.90
2019-05-29T01:18:24.729Z,99.90
2019-05-29T01:19:22.203Z,99.90
2019-05-29T01:20:00.779Z,99.90
2019-05-29T01:20:39.755Z,99.90
2019-05-29T01:21:20.144Z,99.90
2019-05-29T01:21:59.991Z,99.90
2019-05-29T01:22:39.891Z,99.90
2019-05-29T01:23:20.305Z,99.90
2019-05-29T01:23:59.863Z,99.90
2019-05-29T01:24:39.128Z,99.90
2019-05-29T01:25:18.759Z,99.90
2019-05-29T01:25:57.788Z,99.90
2019-05-29T01:26:37.523Z,99.90
2019-05-29T01:27:17.031Z,99.90
2019-05-29T01:27:56.203Z,99.90
2019-05-29T01:28:35.584Z,99.90
2019-05-29T01:29:15.349Z,99.90
2019-05-29T01:29:53.862Z,99.90
2019-05-29T01:30:33.826Z,99.90
2019-05-29T01:31:13.623Z,99.90
2019-05-29T01:31:56.206Z,99.90
2019-05-29T01:32:35.802Z,99.90
2019-05-29T01:33:19.411Z,99.90
2019-05-29T01:33:56.052Z,99.90
2019-05-29T01:34:36.207Z,99.90
2019-05-29T01:35:15.772Z,99.90
2019-05-29T01:35:55.006Z,99.90
2019-05-29T01:36:34.311Z,99.90
2019-05-29T01:37:13.985Z,99.90
2019-05-29T01:37:53.459Z,99.90
2019-05-29T01:38:33.475Z,99.90
2019-05-29T01:39:13.500Z,99.90
2019-05-29T01:39:52.733Z,99.90
2019-05-29T01:40:32.516Z,99.90
2019-05-29T01:41:12.337Z,99.90
2019-05-29T01:41:51.798Z,99.90
2019-05-29T01:42:31.242Z,99.90
2019-05-29T01:43:10.722Z,99.90
2019-05-29T01:43:49.641Z,99.90
2019-05-29T01:44:29.612Z,99.90
2019-05-29T01:45:08.794Z,99.90
2019-05-29T01:45:47.911Z,99.90
2019-05-29T01:46:27.870Z,99.90
2019-05-29T01:47:07.648Z,99.90
2019-05-29T01:47:46.696Z,99.90
2019-05-29T01:48:26.204Z,99.90
2019-05-29T01:49:05.294Z,99.90
2019-05-29T01:49:44.012Z,99.90
2019-05-29T01:50:24.444Z,99.90
2019-05-29T01:51:04.207Z,99.90
2019-05-29T01:51:43.044Z,99.90
2019-05-29T01:52:23.807Z,99.90
2019-05-29T01:53:03.524Z,99.90
2019-05-29T01:53:42.336Z,99.90
2019-05-29T01:54:21.664Z,99.90
2019-05-29T01:55:01.484Z,99.90
2019-05-29T01:55:40.526Z,99.90
2019-05-29T01:56:20.291Z,99.90
2019-05-29T01:57:01.190Z,99.90
2019-05-29T01:57:40.719Z,99.90
2019-05-29T01:58:20.460Z,99.90
2019-05-29T01:59:00.340Z,99.90
2019-05-29T01:59:39.300Z,99.90
2019-05-29T02:00:20.045Z,99.90
2019-05-29T02:01:00.169Z,99.90
2019-05-29T02:01:39.244Z,99.90
2019-05-29T02:02:19.863Z,99.90
2019-05-29T02:02:58.962Z,99.90
2019-05-29T02:03:37.451Z,99.90
2019-05-29T02:04:17.719Z,99.90
2019-05-29T02:04:56.933Z,99.90
2019-05-29T02:05:36.044Z,99.90
2019-05-29T02:06:15.834Z,99.90
2019-05-29T02:06:55.407Z,99.90
2019-05-29T02:07:34.292Z,99.90
2019-05-29T02:08:13.862Z,99.90
2019-05-29T02:08:54.005Z,99.90
2019-05-29T02:09:33.502Z,99.90
2019-05-29T02:10:12.531Z,99.90
2019-05-29T02:10:52.144Z,99.90
2019-05-29T02:11:32.273Z,99.90
2019-05-29T02:12:12.030Z,99.90
2019-05-29T02:12:51.848Z,99.90
2019-05-29T02:13:31.005Z,99.90
2019-05-29T02:14:10.512Z,99.90
2019-05-29T02:14:49.464Z,99.90
2019-05-29T02:15:32.558Z,99.90
2019-05-29T02:16:08.251Z,99.90
2019-05-29T02:16:47.213Z,99.90
2019-05-29T02:17:25.789Z,99.90
2019-05-29T02:18:05.390Z,99.90
2019-05-29T02:18:44.718Z,99.90
2019-05-29T02:19:24.081Z,99.90
2019-05-29T02:20:03.575Z,99.90
2019-05-29T02:20:43.124Z,99.90
2019-05-29T02:21:22.387Z,99.90
2019-05-29T02:22:19.496Z,99.90
2019-05-29T02:22:58.487Z,99.90
2019-05-29T02:23:36.924Z,99.90
2019-05-29T02:24:16.934Z,99.90
2019-05-29T02:24:56.089Z,99.90
2019-05-29T02:25:35.068Z,99.90
2019-05-29T02:26:14.613Z,99.90
2019-05-29T02:26:53.835Z,99.90
2019-05-29T02:27:32.839Z,99.90
2019-05-29T02:28:12.424Z,99.90
2019-05-29T02:28:52.574Z,99.90
2019-05-29T02:29:31.618Z,99.90
2019-05-29T02:30:11.957Z,99.90
2019-05-29T02:30:51.392Z,99.90
2019-05-29T02:31:29.752Z,99.90
2019-05-29T02:32:09.142Z,99.90
2019-05-29T02:32:48.262Z,99.90
2019-05-29T02:33:28.252Z,99.90
2019-05-29T02:34:08.570Z,99.90
2019-05-29T02:34:47.627Z,99.90
2019-05-29T02:35:27.433Z,99.90
2019-05-29T02:36:06.887Z,99.90
2019-05-29T02:36:47.896Z,99.90
2019-05-29T02:37:28.918Z,99.90
2019-05-29T02:38:08.236Z,99.90
2019-05-29T02:38:47.860Z,99.90
2019-05-29T02:39:27.310Z,99.90
2019-05-29T02:40:08.370Z,99.90
2019-05-29T02:40:48.362Z,99.90
2019-05-29T02:41:28.416Z,99.90
2019-05-29T02:42:07.983Z,99.90
2019-05-29T02:42:47.680Z,99.90
2019-05-29T02:43:27.707Z,99.90
2019-05-29T02:44:07.644Z,99.90
2019-05-29T02:44:47.235Z,99.90
2019-05-29T02:45:45.871Z,99.90
2019-05-29T02:46:07.958Z,99.90
2019-05-29T02:46:47.044Z,99.90
2019-05-29T02:47:26.185Z,99.90
2019-05-29T02:48:07.842Z,99.90
2019-05-29T02:48:47.996Z,99.90
2019-05-29T02:49:28.110Z,99.90
2019-05-29T02:50:09.497Z,99.90
2019-05-29T02:50:49.348Z,99.90
2019-05-29T02:51:28.412Z,99.90
2019-05-29T02:52:08.716Z,99.90
2019-05-29T02:52:50.715Z,99.90
2019-05-29T02:53:41.105Z,99.90
2019-05-29T02:54:22.384Z,99.90
2019-05-29T02:55:01.963Z,99.90
2019-05-29T02:55:41.556Z,99.90
2019-05-29T02:56:20.843Z,99.90
2019-05-29T02:57:00.312Z,99.90
2019-05-29T02:57:38.673Z,99.90
2019-05-29T02:58:17.706Z,99.90
2019-05-29T02:58:57.243Z,99.90
2019-05-29T02:59:35.717Z,99.90
2019-05-29T03:00:49.668Z,99.90
2019-05-29T03:01:29.756Z,99.90
2019-05-29T03:02:09.619Z,99.90
2019-05-29T03:02:48.657Z,99.90
2019-05-29T03:03:31.564Z,99.90
2019-05-29T03:04:09.202Z,99.90
2019-05-29T03:04:48.543Z,99.90
2019-05-29T03:05:28.095Z,99.90
2019-05-29T03:06:08.018Z,99.90
2019-05-29T03:06:47.419Z,99.90
2019-05-29T03:07:26.363Z,99.90
2019-05-29T03:08:06.059Z,99.90
2019-05-29T03:08:45.790Z,99.90
2019-05-29T03:09:24.777Z,99.90
2019-05-29T03:10:05.950Z,99.90
2019-05-29T03:10:45.747Z,99.90
2019-05-29T03:11:26.617Z,99.90
2019-05-29T03:12:05.972Z,99.90
2019-05-29T03:12:45.500Z,99.90
2019-05-29T03:13:25.466Z,99.90
2019-05-29T03:14:05.790Z,99.90
2019-05-29T03:14:45.528Z,99.90
2019-05-29T03:15:25.596Z,99.90
2019-05-29T03:16:11.288Z,99.90
2019-05-29T03:16:46.788Z,99.90
2019-05-29T03:17:25.743Z,99.90
2019-05-29T03:18:05.394Z,99.90
2019-05-29T03:18:45.650Z,99.90
2019-05-29T03:19:25.931Z,99.90
2019-05-29T03:20:05.518Z,99.90
2019-05-29T03:20:44.629Z,99.90
2019-05-29T03:21:24.083Z,99.90
2019-05-29T03:22:04.171Z,99.90
2019-05-29T03:22:43.676Z,99.80
2019-05-29T03:23:24.073Z,99.60
2019-05-29T03:24:04.102Z,99.70
2019-05-29T03:24:43.687Z,99.60
2019-05-29T03:25:24.188Z,99.50
2019-05-29T03:26:03.649Z,99.50
2019-05-29T03:26:43.547Z,99.50
2019-05-29T03:27:22.590Z,99.40
2019-05-29T03:28:02.484Z,99.50
2019-05-29T03:28:41.543Z,99.50
2019-05-29T03:29:21.047Z,99.50
2019-05-29T03:30:00.569Z,99.40
2019-05-29T03:30:45.810Z,99.30
2019-05-29T03:31:20.985Z,99.20
2019-05-29T03:32:00.884Z,99.00
2019-05-29T03:32:47.047Z,98.90
2019-05-29T03:33:21.269Z,99.10
2019-05-29T03:34:01.190Z,98.80
2019-05-29T03:34:46.159Z,98.90
2019-05-29T03:35:20.811Z,98.90
2019-05-29T03:36:00.323Z,98.90
2019-05-29T03:36:47.388Z,98.80
2019-05-29T03:37:19.891Z,98.60
2019-05-29T03:37:59.613Z,98.60
2019-05-29T03:38:39.237Z,98.50
2019-05-29T03:39:17.790Z,98.40
2019-05-29T03:39:57.371Z,98.40
2019-05-29T03:40:38.568Z,98.40
2019-05-29T03:41:17.780Z,98.30
2019-05-29T03:41:57.093Z,98.40
2019-05-29T03:42:36.317Z,98.50
2019-05-29T03:43:15.208Z,99.00
2019-05-29T03:43:54.825Z,98.50
2019-05-29T03:44:35.382Z,98.40
2019-05-29T03:45:14.519Z,98.30
2019-05-29T03:45:53.464Z,98.40
2019-05-29T03:46:41.190Z,98.30
2019-05-29T03:47:12.893Z,98.20
2019-05-29T03:47:52.423Z,98.10
2019-05-29T03:48:32.410Z,98.40
2019-05-29T03:49:12.533Z,97.90
2019-05-29T03:49:51.828Z,97.70
2019-05-29T03:50:32.497Z,97.70
2019-05-29T03:51:10.736Z,97.90
2019-05-29T03:51:49.788Z,98.00
2019-05-29T03:52:30.283Z,97.90
2019-05-29T03:53:09.250Z,97.80
2019-05-29T03:53:49.657Z,97.80
2019-05-29T03:54:33.772Z,97.50
2019-05-29T03:55:12.055Z,97.50
2019-05-29T03:55:51.047Z,97.60
2019-05-29T03:56:30.567Z,97.50
2019-05-29T03:57:09.254Z,97.60
2019-05-29T03:57:48.265Z,97.80
2019-05-29T03:58:28.733Z,97.80
2019-05-29T03:59:07.098Z,97.80
2019-05-29T03:59:46.088Z,97.90
2019-05-29T04:00:29.990Z,97.70
2019-05-29T04:01:04.932Z,97.80
2019-05-29T04:01:44.125Z,98.00
2019-05-29T04:02:23.136Z,97.90
2019-05-29T04:03:01.514Z,97.90
2019-05-29T04:03:40.939Z,97.90
2019-05-29T04:04:20.656Z,97.90
2019-05-29T04:04:59.608Z,97.90
2019-05-29T04:05:38.967Z,98.10
2019-05-29T04:06:17.984Z,98.10
2019-05-29T04:06:56.956Z,98.00
2019-05-29T04:07:38.059Z,97.70
2019-05-29T04:08:17.629Z,97.70
2019-05-29T04:08:56.460Z,97.70
2019-05-29T04:09:37.237Z,97.70
2019-05-29T04:10:16.904Z,97.80
2019-05-29T04:10:55.556Z,98.00
2019-05-29T04:11:35.603Z,98.20
2019-05-29T04:12:18.997Z,98.50
2019-05-29T04:12:55.907Z,98.60
2019-05-29T04:13:36.177Z,98.20
2019-05-29T04:14:16.185Z,98.10
2019-05-29T04:14:54.958Z,98.00
2019-05-29T04:15:38.024Z,98.20
2019-05-29T04:16:16.529Z,98.30
2019-05-29T04:16:59.812Z,98.40
2019-05-29T04:17:37.897Z,98.40
2019-05-29T04:18:19.728Z,98.40
2019-05-29T04:18:57.689Z,98.20
2019-05-29T04:19:38.664Z,98.10
2019-05-29T04:20:18.232Z,98.00
2019-05-29T04:20:57.052Z,98.10
2019-05-29T04:21:38.421Z,98.10
2019-05-29T04:22:17.591Z,98.20
2019-05-29T04:22:56.480Z,98.50
2019-05-29T04:23:38.266Z,98.50
2019-05-29T04:24:17.759Z,98.50
2019-05-29T04:24:57.121Z,98.30
2019-05-29T04:25:41.917Z,97.90
2019-05-29T04:26:19.543Z,97.50
2019-05-29T04:26:58.560Z,97.30
2019-05-29T04:27:38.451Z,97.20
2019-05-29T04:28:17.526Z,97.20
2019-05-29T04:28:56.184Z,97.20
2019-05-29T04:29:36.126Z,97.10
2019-05-29T04:30:15.788Z,97.10
2019-05-29T04:30:54.785Z,97.20
2019-05-29T04:31:34.468Z,97.10
2019-05-29T04:32:14.433Z,97.00
2019-05-29T04:32:53.183Z,97.00
2019-05-29T04:33:34.765Z,97.00
2019-05-29T04:34:13.804Z,97.30
2019-05-29T04:34:52.585Z,97.30
2019-05-29T04:35:32.567Z,97.10
2019-05-29T04:36:12.613Z,96.90
2019-05-29T04:36:51.548Z,97.00
2019-05-29T04:37:32.497Z,97.00
2019-05-29T04:38:12.002Z,97.00
2019-05-29T04:38:51.425Z,97.10
2019-05-29T04:39:32.658Z,97.30
2019-05-29T04:40:11.922Z,97.10
2019-05-29T04:40:50.586Z,97.20
2019-05-29T04:41:30.811Z,97.70
2019-05-29T04:42:10.893Z,97.60
2019-05-29T04:42:49.335Z,97.30
2019-05-29T04:43:30.916Z,97.10
2019-05-29T04:44:10.496Z,96.90
2019-05-29T04:44:49.415Z,96.80
2019-05-29T04:45:30.715Z,96.80
2019-05-29T04:46:10.705Z,96.80
2019-05-29T04:47:06.979Z,96.60
2019-05-29T04:47:33.105Z,96.50
2019-05-29T04:48:12.140Z,96.60
2019-05-29T04:48:51.740Z,96.30
2019-05-29T04:49:31.917Z,96.40
2019-05-29T04:50:12.482Z,96.30
2019-05-29T04:50:51.467Z,96.30
2019-05-29T04:51:31.197Z,96.40
2019-05-29T04:52:11.238Z,96.40
2019-05-29T04:52:50.791Z,96.60
2019-05-29T04:53:31.402Z,97.20
2019-05-29T04:54:11.392Z,96.80
2019-05-29T04:54:50.238Z,96.90
2019-05-29T04:55:30.688Z,97.00
2019-05-29T04:56:10.950Z,97.00
2019-05-29T04:56:50.005Z,97.10
2019-05-29T04:57:29.405Z,96.80
2019-05-29T04:58:09.145Z,96.70
2019-05-29T04:58:48.074Z,96.20
2019-05-29T04:59:28.791Z,96.30
2019-05-29T05:00:08.723Z,96.20
2019-05-29T05:00:58.478Z,96.10
2019-05-29T05:01:29.037Z,95.90
2019-05-29T05:02:08.605Z,95.70
2019-05-29T05:02:47.605Z,95.50
2019-05-29T05:03:27.218Z,95.40
2019-05-29T05:04:07.445Z,95.20
2019-05-29T05:04:46.495Z,95.10
2019-05-29T05:05:43.611Z,95.00
2019-05-29T05:06:22.880Z,94.40
2019-05-29T05:07:02.169Z,94.30
2019-05-29T05:07:41.575Z,94.40
2019-05-29T05:08:21.200Z,94.90
2019-05-29T05:08:59.959Z,95.40
2019-05-29T05:09:41.641Z,95.40
2019-05-29T05:10:37.906Z,95.30
2019-05-29T05:11:17.463Z,95.30
2019-05-29T05:11:56.855Z,95.40
2019-05-29T05:12:36.282Z,95.60
2019-05-29T05:13:15.368Z,95.60
2019-05-29T05:13:55.094Z,95.50
2019-05-29T05:14:35.452Z,95.20
2019-05-29T05:15:14.866Z,95.20
2019-05-29T05:15:54.506Z,95.20
2019-05-29T05:16:34.371Z,95.40
2019-05-29T05:17:25.809Z,95.30
2019-05-29T05:17:54.855Z,95.10
2019-05-29T05:18:33.881Z,95.10
2019-05-29T05:19:12.788Z,94.60
2019-05-29T05:19:58.533Z,94.40
2019-05-29T05:20:38.268Z,94.20
2019-05-29T05:21:17.687Z,93.80
2019-05-29T05:21:57.867Z,93.80
2019-05-29T05:22:38.207Z,93.70
2019-05-29T05:23:16.791Z,94.00
2019-05-29T05:23:56.206Z,94.00
2019-05-29T05:24:36.404Z,94.30
2019-05-29T05:25:15.296Z,94.70
2019-05-29T05:25:54.635Z,94.90
2019-05-29T05:26:34.145Z,95.10
2019-05-29T05:27:13.918Z,95.00
2019-05-29T05:27:59.291Z,94.50
2019-05-29T05:28:39.049Z,94.50
2019-05-29T05:29:17.990Z,94.60
2019-05-29T05:29:57.169Z,94.80
2019-05-29T05:30:36.912Z,94.80
2019-05-29T05:31:15.949Z,95.10
2019-05-29T05:31:55.580Z,94.80
2019-05-29T05:32:34.931Z,94.70
2019-05-29T05:33:14.442Z,94.70
2019-05-29T05:33:53.883Z,94.60
2019-05-29T05:34:34.663Z,94.50
2019-05-29T05:35:14.485Z,94.80
2019-05-29T05:35:56.036Z,94.20
2019-05-29T05:36:37.351Z,94.00
2019-05-29T05:37:16.039Z,93.80
2019-05-29T05:37:55.811Z,94.10
2019-05-29T05:38:35.339Z,94.10
2019-05-29T05:39:14.380Z,94.10
2019-05-29T05:39:54.471Z,94.20
2019-05-29T05:40:37.129Z,93.90
2019-05-29T05:41:14.960Z,93.80
2019-05-29T05:41:54.727Z,93.80
2019-05-29T05:42:34.794Z,93.80
2019-05-29T05:43:23.783Z,93.70
2019-05-29T05:43:53.751Z,93.70
2019-05-29T05:44:32.897Z,93.70
2019-05-29T05:45:11.643Z,93.60
2019-05-29T05:45:50.698Z,93.60
2019-05-29T05:46:30.863Z,93.60
2019-05-29T05:47:09.511Z,93.10
2019-05-29T05:47:56.812Z,92.90
2019-05-29T05:48:28.937Z,92.80
2019-05-29T05:49:07.332Z,92.50
2019-05-29T05:49:46.304Z,91.80
2019-05-29T05:50:25.814Z,91.70
2019-05-29T05:51:04.567Z,91.20
2019-05-29T05:51:44.791Z,91.00
2019-05-29T05:52:23.914Z,90.50
2019-05-29T05:53:02.415Z,90.40
2019-05-29T05:53:41.754Z,90.40
2019-05-29T05:54:21.431Z,89.60
2019-05-29T05:55:00.261Z,88.60
2019-05-29T05:55:39.777Z,88.40
2019-05-29T05:56:20.270Z,88.30
2019-05-29T05:56:59.247Z,88.90
2019-05-29T05:57:38.216Z,88.70
2019-05-29T05:58:17.162Z,88.50
2019-05-29T05:58:55.558Z,88.60
2019-05-29T05:59:35.657Z,89.00
2019-05-29T06:00:14.782Z,88.80
2019-05-29T06:00:53.190Z,88.90
2019-05-29T06:01:32.137Z,89.20
2019-05-29T06:02:11.396Z,89.50
2019-05-29T06:02:52.181Z,89.50
2019-05-29T06:03:30.168Z,90.00
2019-05-29T06:04:09.099Z,90.20
2019-05-29T06:04:47.476Z,91.60
2019-05-29T06:05:26.705Z,91.60
2019-05-29T06:06:05.734Z,92.10
2019-05-29T06:06:44.098Z,92.60
2019-05-29T06:07:23.065Z,92.80
2019-05-29T06:08:02.140Z,93.10
2019-05-29T06:08:40.547Z,93.40
2019-05-29T06:09:19.487Z,93.80
2019-05-29T06:09:58.471Z,93.90
2019-05-29T06:10:38.091Z,93.30
2019-05-29T06:11:17.236Z,93.30
2019-05-29T06:11:56.762Z,93.40
2019-05-29T06:12:36.243Z,93.50
2019-05-29T06:13:15.656Z,93.50
2019-05-29T06:13:55.032Z,93.70
2019-05-29T06:14:34.350Z,94.20
2019-05-29T06:15:13.607Z,94.10
2019-05-29T06:15:52.874Z,94.20
2019-05-29T06:16:32.856Z,94.40
2019-05-29T06:17:13.427Z,94.50
2019-05-29T06:18:16.999Z,94.50
2019-05-29T06:18:32.859Z,94.60
2019-05-29T06:19:12.024Z,94.70
2019-05-29T06:19:51.002Z,94.80
2019-05-29T06:20:29.390Z,94.90
2019-05-29T06:21:08.587Z,95.10
2019-05-29T06:21:49.515Z,95.20
2019-05-29T06:22:27.985Z,95.30
2019-05-29T06:23:07.414Z,95.30
2019-05-29T06:23:46.750Z,95.30
2019-05-29T06:24:25.874Z,95.10
2019-05-29T06:25:05.645Z,95.20
2019-05-29T06:25:44.670Z,95.20
2019-05-29T06:26:24.049Z,95.40
2019-05-29T06:27:10.978Z,95.20
2019-05-29T06:27:50.514Z,95.10
2019-05-29T06:28:29.356Z,95.00
2019-05-29T06:29:08.547Z,95.00
2019-05-29T06:29:47.609Z,95.00
2019-05-29T06:30:26.030Z,95.20
2019-05-29T06:31:06.108Z,95.20
2019-05-29T06:31:47.907Z,95.30
2019-05-29T06:32:27.918Z,95.50
2019-05-29T06:33:07.767Z,95.60
2019-05-29T06:33:47.264Z,95.70
2019-05-29T06:34:25.987Z,95.60
2019-05-29T06:35:05.395Z,95.20
2019-05-29T06:35:45.273Z,95.20
2019-05-29T06:36:24.505Z,94.90
2019-05-29T06:37:03.761Z,93.60
2019-05-29T06:37:43.776Z,93.00
2019-05-29T06:38:22.876Z,93.10
2019-05-29T06:39:02.624Z,93.10
2019-05-29T06:39:43.794Z,92.60
2019-05-29T06:40:42.157Z,92.50
2019-05-29T06:41:22.523Z,92.10
2019-05-29T06:42:01.504Z,92.20
2019-05-29T06:42:39.944Z,91.90
2019-05-29T06:43:28.158Z,91.80
2019-05-29T06:44:07.859Z,91.90
2019-05-29T06:44:48.884Z,92.30
2019-05-29T06:45:35.678Z,92.60
2019-05-29T06:46:15.286Z,92.90
2019-05-29T06:46:54.257Z,93.30
2019-05-29T06:47:34.249Z,93.30
2019-05-29T06:48:15.179Z,93.40
2019-05-29T06:49:00.473Z,93.50
2019-05-29T06:49:42.156Z,93.60
2019-05-29T06:50:21.841Z,93.90
2019-05-29T06:51:00.738Z,94.20
2019-05-29T06:51:41.333Z,94.70
2019-05-29T06:52:21.087Z,94.90
2019-05-29T06:52:59.847Z,94.90
2019-05-29T06:53:39.833Z,95.00
2019-05-29T06:54:18.909Z,95.00
2019-05-29T06:54:57.423Z,95.10
2019-05-29T06:55:37.922Z,95.10
2019-05-29T06:56:17.568Z,95.20
2019-05-29T06:56:56.374Z,95.40
2019-05-29T06:57:36.043Z,95.60
2019-05-29T06:58:16.053Z,95.70
2019-05-29T06:58:54.444Z,95.90
2019-05-29T06:59:33.464Z,96.00
2019-05-29T07:00:12.603Z,96.00
2019-05-29T07:00:51.200Z,96.30
2019-05-29T07:01:30.207Z,95.90
2019-05-29T07:02:09.193Z,96.40
2019-05-29T07:02:47.606Z,96.50
2019-05-29T07:03:26.624Z,96.60
2019-05-29T07:04:11.804Z,96.60
2019-05-29T07:04:46.427Z,96.60
2019-05-29T07:05:25.647Z,96.70
2019-05-29T07:06:05.312Z,96.80
2019-05-29T07:06:44.800Z,96.80
2019-05-29T07:07:23.943Z,96.80
2019-05-29T07:08:18.224Z,96.80
2019-05-29T07:08:47.549Z,96.70
2019-05-29T07:09:23.171Z,96.70
2019-05-29T07:10:02.187Z,96.70
2019-05-29T07:10:40.696Z,96.70
2019-05-29T07:11:19.676Z,96.90
2019-05-29T07:11:58.726Z,97.00
2019-05-29T07:12:38.222Z,96.90
2019-05-29T07:13:17.395Z,96.90
2019-05-29T07:13:56.384Z,97.00
2019-05-29T07:14:52.911Z,96.90
2019-05-29T07:15:31.928Z,96.90
2019-05-29T07:16:10.900Z,96.80
2019-05-29T07:16:55.591Z,96.80
2019-05-29T07:17:29.739Z,97.00
2019-05-29T07:18:08.719Z,97.30
2019-05-29T07:19:23.256Z,96.80
2019-05-29T07:19:47.214Z,97.10
2019-05-29T07:20:07.951Z,97.00
2019-05-29T07:20:46.987Z,97.30
2019-05-29T07:21:26.071Z,97.10
2019-05-29T07:22:04.969Z,97.30
2019-05-29T07:22:43.326Z,97.10
2019-05-29T07:23:22.211Z,97.30
2019-05-29T07:24:01.115Z,97.10
2019-05-29T07:24:41.099Z,97.30
2019-05-29T07:25:19.972Z,97.40
2019-05-29T07:26:00.156Z,97.60
2019-05-29T07:26:38.942Z,97.70
2019-05-29T07:27:18.066Z,97.40
2019-05-29T07:27:58.295Z,97.60
2019-05-29T07:28:37.224Z,97.60
2019-05-29T07:29:16.544Z,97.80
2019-05-29T07:29:56.446Z,97.70
2019-05-29T07:30:39.020Z,97.70
2019-05-29T07:31:18.068Z,97.70
2019-05-29T07:31:57.028Z,97.70
2019-05-29T07:32:35.409Z,97.70
2019-05-29T07:33:14.462Z,97.20
2019-05-29T07:33:53.518Z,96.90
2019-05-29T07:34:47.434Z,96.70
2019-05-29T07:35:30.817Z,96.60
2019-05-29T07:36:09.783Z,96.50
2019-05-29T07:36:48.272Z,96.60
2019-05-29T07:37:27.403Z,96.60
2019-05-29T07:38:06.328Z,96.60
2019-05-29T07:38:54.885Z,96.70
2019-05-29T07:39:25.139Z,96.60
2019-05-29T07:40:04.146Z,96.70
2019-05-29T07:40:42.710Z,96.80
2019-05-29T07:41:22.830Z,96.90
2019-05-29T07:42:01.769Z,96.90
2019-05-29T07:42:45.372Z,97.40
2019-05-29T07:43:20.555Z,97.00
2019-05-29T07:43:59.487Z,96.80
2019-05-29T07:44:38.040Z,96.60
2019-05-29T07:45:17.064Z,96.60
2019-05-29T07:45:56.180Z,96.60
2019-05-29T07:46:34.743Z,96.60
2019-05-29T07:47:13.709Z,96.60
2019-05-29T07:47:52.764Z,96.60
2019-05-29T07:48:31.347Z,96.60
2019-05-29T07:49:10.376Z,96.70
2019-05-29T07:49:50.298Z,96.70
2019-05-29T07:50:28.880Z,96.60
2019-05-29T07:51:07.917Z,96.80
2019-05-29T07:51:47.059Z,96.70
2019-05-29T07:52:25.716Z,96.70
2019-05-29T07:53:04.856Z,96.70
2019-05-29T07:53:44.448Z,96.80
2019-05-29T07:54:23.064Z,97.00
2019-05-29T07:55:02.095Z,97.70
2019-05-29T07:55:41.063Z,97.30
2019-05-29T07:56:23.130Z,97.60
2019-05-29T07:56:59.880Z,97.40
2019-05-29T07:57:40.708Z,97.40
2019-05-29T07:58:19.627Z,97.70
2019-05-29T07:59:02.954Z,98.00
2019-05-29T07:59:40.453Z,97.20
2019-05-29T08:00:19.341Z,97.00
2019-05-29T08:01:11.507Z,96.90
2019-05-29T08:01:38.854Z,96.90
2019-05-29T08:02:17.295Z,97.00
2019-05-29T08:02:56.277Z,96.90
2019-05-29T08:03:35.246Z,96.80
2019-05-29T08:04:13.833Z,96.90
2019-05-29T08:04:54.485Z,96.90
2019-05-29T08:05:33.490Z,96.90
2019-05-29T08:06:11.878Z,96.60
2019-05-29T08:06:54.399Z,96.40
2019-05-29T08:07:31.306Z,96.40
2019-05-29T08:08:09.680Z,96.30
2019-05-29T08:08:49.560Z,96.20
2019-05-29T08:09:28.649Z,96.20
2019-05-29T08:10:07.711Z,96.00
2019-05-29T08:10:47.620Z,95.90
2019-05-29T08:11:26.791Z,96.10
2019-05-29T08:12:05.202Z,95.70
2019-05-29T08:12:50.232Z,95.70
2019-05-29T08:13:24.664Z,95.90
2019-05-29T08:14:03.043Z,94.80
2019-05-29T08:14:42.071Z,94.70
2019-05-29T08:15:21.282Z,94.70
2019-05-29T08:16:03.142Z,94.30
2019-05-29T08:16:40.091Z,94.40
2019-05-29T08:17:19.062Z,94.50
2019-05-29T08:17:58.533Z,94.70
2019-05-29T08:18:37.535Z,95.00
2019-05-29T08:19:16.474Z,95.10
2019-05-29T08:20:05.821Z,95.30
2019-05-29T08:20:35.322Z,95.70
2019-05-29T08:21:14.304Z,95.90
2019-05-29T08:21:52.795Z,96.00
2019-05-29T08:22:34.515Z,96.20
2019-05-29T08:23:12.180Z,96.60
2019-05-29T08:23:50.905Z,97.00
2019-05-29T08:24:30.081Z,97.20
2019-05-29T08:25:09.279Z,97.20
2019-05-29T08:25:47.763Z,97.20
2019-05-29T08:26:26.775Z,97.20
2019-05-29T08:27:05.875Z,97.30
2019-05-29T08:27:44.775Z,97.50
2019-05-29T08:28:24.493Z,97.80
2019-05-29T08:29:03.507Z,97.90
2019-05-29T08:29:42.598Z,98.20
2019-05-29T08:30:21.746Z,98.90
2019-05-29T08:31:00.774Z,99.30
2019-05-29T08:31:40.565Z,99.50
2019-05-29T08:32:20.569Z,99.80
2019-05-29T08:32:59.654Z,99.90